Murfreesboro, AR

8:33 AM CDT on July 24, 2014 (GMT -0500)
Beth House Suites (KARNASHV8) Elev 410 ft | 33.95 °N, 93.85 °W | Change Station

Current weather conditions updated 5 minutes ago

Fog
Fog
68.1 °F
Feels Like 68.1 °F
N
0.0
Wind Variable Wind from ENE

Today is forecast to be Cooler than yesterday.

Today
High -- | Low -- °F
--% Chance of Precip.
Yesterday
High -- | Low -- °F
Precip. -- in
6:20 AM 8:21 PM
Waning Crescent, 5% visible
Pressure 30.08 in
Visibility 4.0 miles
Clouds Mostly Cloudy 200 ft
Dew Point 68 °F
Humidity 98%
Rainfall -9999.00 in
Snow Depth Not available.
UV 1 out of 12
Pollen 4.60 out of 12
Air Quality Not available.
Flu Activity Not available.
SPECI KMWT 241317Z AUTO 00000KT 4SM BR BKN002 19/19 A3008 RMK AO2 T01940189

More Conditions Fewer Conditions

Pressure 30.08 in
Visibility 4.0 miles
Clouds Mostly Cloudy 200 ft
Dew Point 68 °F
Humidity 98%
Rainfall -9999.00 in
Snow Depth Not available.
UV 1 out of 12
Pollen 4.60 out of 12
Air Quality Not available.
Flu Activity Not available.
SPECI KMWT 241317Z AUTO 00000KT 4SM BR BKN002 19/19 A3008 RMK AO2 T01940189

More Conditions Fewer Conditions

10-Day Weather Forecast

Almanac

Astronomy

Jul. 24, 2014 Rise Set
Actual Time 6:20 AM CDT 8:21 PM CDT
Civil Twilight 5:52 AM CDT 8:49 PM CDT
Nautical Twilight 5:18 AM CDT 9:23 PM CDT
Astronomical Twilight 4:41 AM CDT 9:59 PM CDT
Moon 4:27 AM CDT 6:38 PM CDT
Length of Visible Light 14h 57m
Length of Day
14h 01m
Tomorrow will be 1m 23s shorter.
Waning Crescent, 5% of the Moon is Illuminated
Today
Waning Crescent
Jul 26
New
Aug 3
First Quarter
Aug 10
Full
Aug 17
Last Quarter

Today's Extremes

State Highs State Lows

Community

WunderPhotos

Upload Photos

1,736,998 photos uploaded!

Nearby

Snow Depth

Station Depth Elevation
No new snow has been reported.

Earthquake Activity

City Distance Mag. Time & Date
No recent earthquake activity has been reported nearby.
Minimum magnitude displayed is 2.5.

Coastal Water Temperatures

Place Temperature
No Stations Reporting

Nearby Weather Stations

Station Location Temp. Dew Point Humidity Wind Precip. Elev Updated Type
Beth House Suites, Nashville, AR 68.1 °F 68 °F 98% ENE  at  0.0 mph - / hr 410 ft 8:28 AM CDT Normal
Bethany, Dierks, AR 70.7 °F 70 °F 96% North  at  2.0 mph 0.00 in / hr 502 ft 8:33 AM CDT Rapid Fire

Show More Stations Show Fewer Stations